sensor_id;sensor_type;location;lat;lon;timestamp;P1;durP1;ratioP1;P2;durP2;ratioP2
1366;SDS011;16877;48.810;9.282;2022-09-30T00:01:49;6.63;;;4.63;;
1366;SDS011;16877;48.810;9.282;2022-09-30T00:04:16;7.30;;;5.07;;
1366;SDS011;16877;48.810;9.282;2022-09-30T00:06:45;6.50;;;5.10;;
1366;SDS011;16877;48.810;9.282;2022-09-30T00:09:12;5.47;;;3.93;;
1366;SDS011;16877;48.810;9.282;2022-09-30T00:11:40;5.77;;;5.10;;
1366;SDS011;16877;48.810;9.282;2022-09-30T00:14:07;5.97;;;5.07;;
1366;SDS011;16877;48.810;9.282;2022-09-30T00:16:40;5.90;;;4.37;;
1366;SDS011;16877;48.810;9.282;2022-09-30T00:19:07;7.70;;;5.40;;
1366;SDS011;16877;48.810;9.282;2022-09-30T00:21:34;8.23;;;5.60;;
1366;SDS011;16877;48.810;9.282;2022-09-30T00:24:01;8.10;;;4.90;;
1366;SDS011;16877;48.810;9.282;2022-09-30T00:26:29;6.70;;;4.50;;
1366;SDS011;16877;48.810;9.282;2022-09-30T00:28:57;6.43;;;4.20;;
1366;SDS011;16877;48.810;9.282;2022-09-30T00:31:26;5.10;;;4.10;;
1366;SDS011;16877;48.810;9.282;2022-09-30T00:33:55;6.20;;;3.97;;
1366;SDS011;16877;48.810;9.282;2022-09-30T00:36:35;8.10;;;3.73;;
1366;SDS011;16877;48.810;9.282;2022-09-30T00:39:05;4.80;;;3.97;;
1366;SDS011;16877;48.810;9.282;2022-09-30T00:41:33;5.80;;;4.57;;
1366;SDS011;16877;48.810;9.282;2022-09-30T00:44:00;4.30;;;3.70;;
1366;SDS011;16877;48.810;9.282;2022-09-30T00:46:30;4.83;;;3.97;;
1366;SDS011;16877;48.810;9.282;2022-09-30T00:49:03;4.93;;;4.43;;
1366;SDS011;16877;48.810;9.282;2022-09-30T00:51:35;5.70;;;3.90;;
1366;SDS011;16877;48.810;9.282;2022-09-30T00:54:04;10.07;;;4.70;;
1366;SDS011;16877;48.810;9.282;2022-09-30T00:56:36;5.23;;;4.00;;
1366;SDS011;16877;48.810;9.282;2022-09-30T00:59:08;6.00;;;4.50;;
1366;SDS011;16877;48.810;9.282;2022-09-30T01:01:39;5.07;;;3.93;;
1366;SDS011;16877;48.810;9.282;2022-09-30T01:04:10;9.80;;;4.30;;
1366;SDS011;16877;48.810;9.282;2022-09-30T01:06:40;7.47;;;4.80;;
1366;SDS011;16877;48.810;9.282;2022-09-30T01:09:07;5.47;;;4.40;;
1366;SDS011;16877;48.810;9.282;2022-09-30T01:11:33;6.17;;;4.97;;
1366;SDS011;16877;48.810;9.282;2022-09-30T01:14:00;7.20;;;5.43;;
1366;SDS011;16877;48.810;9.282;2022-09-30T01:16:42;5.43;;;4.40;;
1366;SDS011;16877;48.810;9.282;2022-09-30T01:19:23;6.40;;;4.27;;
1366;SDS011;16877;48.810;9.282;2022-09-30T01:22:17;5.83;;;4.13;;
1366;SDS011;16877;48.810;9.282;2022-09-30T01:25:01;5.60;;;4.43;;
1366;SDS011;16877;48.810;9.282;2022-09-30T01:30:49;12.33;;;4.37;;
1366;SDS011;16877;48.810;9.282;2022-09-30T01:33:32;6.10;;;4.00;;
1366;SDS011;16877;48.810;9.282;2022-09-30T01:36:11;5.63;;;4.30;;
1366;SDS011;16877;48.810;9.282;2022-09-30T01:38:54;5.53;;;4.53;;
1366;SDS011;16877;48.810;9.282;2022-09-30T01:41:31;5.87;;;4.63;;
1366;SDS011;16877;48.810;9.282;2022-09-30T01:44:05;6.10;;;4.73;;
1366;SDS011;16877;48.810;9.282;2022-09-30T01:46:41;4.23;;;3.67;;
1366;SDS011;16877;48.810;9.282;2022-09-30T01:49:12;4.40;;;3.80;;
1366;SDS011;16877;48.810;9.282;2022-09-30T01:51:47;4.40;;;3.67;;
1366;SDS011;16877;48.810;9.282;2022-09-30T01:54:21;5.73;;;3.70;;
1366;SDS011;16877;48.810;9.282;2022-09-30T01:56:52;5.03;;;3.50;;
1366;SDS011;16877;48.810;9.282;2022-09-30T01:59:24;5.00;;;3.90;;
1366;SDS011;16877;48.810;9.282;2022-09-30T02:01:59;5.50;;;3.60;;
1366;SDS011;16877;48.810;9.282;2022-09-30T02:04:32;5.23;;;3.83;;
1366;SDS011;16877;48.810;9.282;2022-09-30T02:07:03;4.30;;;3.90;;
1366;SDS011;16877;48.810;9.282;2022-09-30T02:09:32;4.80;;;3.73;;
1366;SDS011;16877;48.810;9.282;2022-09-30T02:12:04;6.53;;;4.30;;
1366;SDS011;16877;48.810;9.282;2022-09-30T02:14:34;4.73;;;3.90;;
1366;SDS011;16877;48.810;9.282;2022-09-30T02:17:08;5.30;;;4.00;;
1366;SDS011;16877;48.810;9.282;2022-09-30T02:19:40;5.27;;;4.03;;
1366;SDS011;16877;48.810;9.282;2022-09-30T02:22:10;4.20;;;3.80;;
1366;SDS011;16877;48.810;9.282;2022-09-30T02:24:41;4.50;;;3.53;;
1366;SDS011;16877;48.810;9.282;2022-09-30T02:27:11;4.90;;;3.97;;
1366;SDS011;16877;48.810;9.282;2022-09-30T02:29:44;5.30;;;3.90;;
1366;SDS011;16877;48.810;9.282;2022-09-30T02:32:18;5.07;;;3.83;;
1366;SDS011;16877;48.810;9.282;2022-09-30T02:34:51;5.53;;;3.70;;
1366;SDS011;16877;48.810;9.282;2022-09-30T02:37:23;4.03;;;3.57;;
1366;SDS011;16877;48.810;9.282;2022-09-30T02:39:53;5.63;;;3.90;;
1366;SDS011;16877;48.810;9.282;2022-09-30T02:42:26;5.07;;;3.90;;
1366;SDS011;16877;48.810;9.282;2022-09-30T02:44:54;4.50;;;3.67;;
1366;SDS011;16877;48.810;9.282;2022-09-30T02:47:27;4.67;;;3.53;;
1366;SDS011;16877;48.810;9.282;2022-09-30T02:49:59;5.70;;;3.63;;
1366;SDS011;16877;48.810;9.282;2022-09-30T02:52:33;4.60;;;3.73;;
1366;SDS011;16877;48.810;9.282;2022-09-30T02:55:13;5.47;;;3.43;;
1366;SDS011;16877;48.810;9.282;2022-09-30T02:57:47;8.67;;;3.80;;
1366;SDS011;16877;48.810;9.282;2022-09-30T03:00:22;4.80;;;3.70;;
1366;SDS011;16877;48.810;9.282;2022-09-30T03:02:51;5.37;;;3.53;;
1366;SDS011;16877;48.810;9.282;2022-09-30T03:05:22;4.93;;;2.90;;
1366;SDS011;16877;48.810;9.282;2022-09-30T03:07:49;6.20;;;3.80;;
1366;SDS011;16877;48.810;9.282;2022-09-30T03:10:16;4.60;;;3.70;;
1366;SDS011;16877;48.810;9.282;2022-09-30T03:12:49;5.30;;;3.30;;
1366;SDS011;16877;48.810;9.282;2022-09-30T03:15:29;6.10;;;3.97;;
1366;SDS011;16877;48.810;9.282;2022-09-30T03:18:18;4.70;;;3.50;;
1366;SDS011;16877;48.810;9.282;2022-09-30T03:21:02;3.83;;;3.43;;
1366;SDS011;16877;48.810;9.282;2022-09-30T03:23:47;5.97;;;4.10;;
1366;SDS011;16877;48.810;9.282;2022-09-30T03:26:28;4.83;;;3.33;;
1366;SDS011;16877;48.810;9.282;2022-09-30T03:29:06;4.43;;;3.93;;
1366;SDS011;16877;48.810;9.282;2022-09-30T03:31:40;5.93;;;3.77;;
1366;SDS011;16877;48.810;9.282;2022-09-30T03:34:18;3.77;;;3.23;;
1366;SDS011;16877;48.810;9.282;2022-09-30T03:36:54;4.70;;;3.90;;
1366;SDS011;16877;48.810;9.282;2022-09-30T03:39:28;6.17;;;3.93;;
1366;SDS011;16877;48.810;9.282;2022-09-30T03:42:06;7.07;;;4.60;;
1366;SDS011;16877;48.810;9.282;2022-09-30T03:44:38;5.90;;;4.87;;
1366;SDS011;16877;48.810;9.282;2022-09-30T03:47:10;4.10;;;3.60;;
1366;SDS011;16877;48.810;9.282;2022-09-30T03:49:42;4.67;;;4.20;;
1366;SDS011;16877;48.810;9.282;2022-09-30T03:52:13;5.50;;;4.60;;
1366;SDS011;16877;48.810;9.282;2022-09-30T03:54:45;5.73;;;4.10;;
1366;SDS011;16877;48.810;9.282;2022-09-30T03:57:13;5.23;;;4.10;;
1366;SDS011;16877;48.810;9.282;2022-09-30T03:59:40;6.23;;;4.13;;
1366;SDS011;16877;48.810;9.282;2022-09-30T04:02:07;5.63;;;3.80;;
1366;SDS011;16877;48.810;9.282;2022-09-30T04:04:37;4.53;;;4.10;;
1366;SDS011;16877;48.810;9.282;2022-09-30T04:07:06;3.90;;;3.50;;
1366;SDS011;16877;48.810;9.282;2022-09-30T04:09:34;4.10;;;3.67;;
1366;SDS011;16877;48.810;9.282;2022-09-30T04:12:01;4.10;;;3.30;;
1366;SDS011;16877;48.810;9.282;2022-09-30T04:14:27;4.23;;;3.77;;
1366;SDS011;16877;48.810;9.282;2022-09-30T04:16:54;5.70;;;4.20;;
1366;SDS011;16877;48.810;9.282;2022-09-30T04:19:21;6.00;;;4.17;;
1366;SDS011;16877;48.810;9.282;2022-09-30T04:21:49;4.23;;;3.53;;
1366;SDS011;16877;48.810;9.282;2022-09-30T04:24:18;6.30;;;3.60;;
1366;SDS011;16877;48.810;9.282;2022-09-30T04:26:45;5.30;;;3.90;;
1366;SDS011;16877;48.810;9.282;2022-09-30T04:29:11;3.93;;;3.53;;
1366;SDS011;16877;48.810;9.282;2022-09-30T04:31:38;5.90;;;4.10;;
1366;SDS011;16877;48.810;9.282;2022-09-30T04:34:05;5.47;;;4.50;;
1366;SDS011;16877;48.810;9.282;2022-09-30T04:36:32;4.63;;;4.03;;
1366;SDS011;16877;48.810;9.282;2022-09-30T04:38:59;5.90;;;4.70;;
1366;SDS011;16877;48.810;9.282;2022-09-30T04:41:27;5.13;;;4.10;;
1366;SDS011;16877;48.810;9.282;2022-09-30T04:43:53;5.50;;;4.03;;
1366;SDS011;16877;48.810;9.282;2022-09-30T04:46:20;6.90;;;4.97;;
1366;SDS011;16877;48.810;9.282;2022-09-30T04:48:47;5.27;;;4.67;;
1366;SDS011;16877;48.810;9.282;2022-09-30T04:51:15;5.67;;;4.23;;
1366;SDS011;16877;48.810;9.282;2022-09-30T04:53:43;5.33;;;4.73;;
1366;SDS011;16877;48.810;9.282;2022-09-30T04:56:11;5.70;;;4.50;;
1366;SDS011;16877;48.810;9.282;2022-09-30T04:58:39;4.77;;;4.27;;
1366;SDS011;16877;48.810;9.282;2022-09-30T05:01:07;4.50;;;3.90;;
1366;SDS011;16877;48.810;9.282;2022-09-30T05:03:35;6.90;;;3.70;;
1366;SDS011;16877;48.810;9.282;2022-09-30T05:06:02;4.80;;;3.70;;
1366;SDS011;16877;48.810;9.282;2022-09-30T05:08:30;4.87;;;4.37;;
1366;SDS011;16877;48.810;9.282;2022-09-30T05:10:58;4.90;;;4.40;;
1366;SDS011;16877;48.810;9.282;2022-09-30T05:13:28;5.93;;;4.07;;
1366;SDS011;16877;48.810;9.282;2022-09-30T05:15:58;4.10;;;3.70;;
1366;SDS011;16877;48.810;9.282;2022-09-30T05:18:25;3.83;;;3.23;;
1366;SDS011;16877;48.810;9.282;2022-09-30T05:20:52;4.47;;;3.87;;
1366;SDS011;16877;48.810;9.282;2022-09-30T05:23:19;5.43;;;3.80;;
1366;SDS011;16877;48.810;9.282;2022-09-30T05:25:46;3.67;;;3.37;;
1366;SDS011;16877;48.810;9.282;2022-09-30T05:28:13;3.57;;;3.23;;
1366;SDS011;16877;48.810;9.282;2022-09-30T05:30:40;3.60;;;3.07;;
1366;SDS011;16877;48.810;9.282;2022-09-30T05:33:10;3.93;;;3.53;;
1366;SDS011;16877;48.810;9.282;2022-09-30T05:35:38;3.30;;;2.90;;
1366;SDS011;16877;48.810;9.282;2022-09-30T05:38:05;4.10;;;3.50;;
1366;SDS011;16877;48.810;9.282;2022-09-30T05:40:35;3.20;;;2.80;;
1366;SDS011;16877;48.810;9.282;2022-09-30T05:43:03;3.40;;;2.77;;
1366;SDS011;16877;48.810;9.282;2022-09-30T05:45:29;3.30;;;2.90;;
1366;SDS011;16877;48.810;9.282;2022-09-30T05:47:57;3.33;;;2.87;;
1366;SDS011;16877;48.810;9.282;2022-09-30T05:50:25;2.40;;;2.20;;
1366;SDS011;16877;48.810;9.282;2022-09-30T05:52:52;3.37;;;2.73;;
1366;SDS011;16877;48.810;9.282;2022-09-30T05:55:19;3.23;;;2.93;;
1366;SDS011;16877;48.810;9.282;2022-09-30T05:57:46;3.63;;;3.00;;
1366;SDS011;16877;48.810;9.282;2022-09-30T06:00:14;3.20;;;2.90;;
1366;SDS011;16877;48.810;9.282;2022-09-30T06:02:42;5.00;;;2.73;;
1366;SDS011;16877;48.810;9.282;2022-09-30T06:05:09;3.50;;;2.63;;
1366;SDS011;16877;48.810;9.282;2022-09-30T06:07:39;3.10;;;2.77;;
1366;SDS011;16877;48.810;9.282;2022-09-30T06:10:06;3.10;;;2.80;;
1366;SDS011;16877;48.810;9.282;2022-09-30T06:12:36;2.50;;;2.30;;
1366;SDS011;16877;48.810;9.282;2022-09-30T06:15:03;3.23;;;2.93;;
1366;SDS011;16877;48.810;9.282;2022-09-30T06:17:31;3.00;;;2.53;;
1366;SDS011;16877;48.810;9.282;2022-09-30T06:19:58;3.10;;;2.50;;
1366;SDS011;16877;48.810;9.282;2022-09-30T06:22:25;4.50;;;3.13;;
1366;SDS011;16877;48.810;9.282;2022-09-30T06:24:53;3.50;;;3.20;;
1366;SDS011;16877;48.810;9.282;2022-09-30T06:27:20;3.53;;;3.17;;
1366;SDS011;16877;48.810;9.282;2022-09-30T06:29:47;3.13;;;2.63;;
1366;SDS011;16877;48.810;9.282;2022-09-30T06:32:13;3.57;;;3.27;;
1366;SDS011;16877;48.810;9.282;2022-09-30T06:34:41;3.80;;;3.27;;
1366;SDS011;16877;48.810;9.282;2022-09-30T06:37:08;4.33;;;3.23;;
1366;SDS011;16877;48.810;9.282;2022-09-30T06:39:35;3.57;;;2.90;;
1366;SDS011;16877;48.810;9.282;2022-09-30T06:42:03;3.50;;;3.20;;
1366;SDS011;16877;48.810;9.282;2022-09-30T06:44:30;3.77;;;3.03;;
1366;SDS011;16877;48.810;9.282;2022-09-30T06:46:56;3.87;;;3.47;;
1366;SDS011;16877;48.810;9.282;2022-09-30T06:49:23;4.03;;;3.63;;
1366;SDS011;16877;48.810;9.282;2022-09-30T06:51:50;4.73;;;3.90;;
1366;SDS011;16877;48.810;9.282;2022-09-30T06:54:17;4.03;;;3.23;;
1366;SDS011;16877;48.810;9.282;2022-09-30T06:56:45;4.20;;;3.50;;
1366;SDS011;16877;48.810;9.282;2022-09-30T06:59:13;3.80;;;3.27;;
1366;SDS011;16877;48.810;9.282;2022-09-30T07:01:41;3.43;;;3.13;;
1366;SDS011;16877;48.810;9.282;2022-09-30T07:04:08;4.00;;;3.60;;
1366;SDS011;16877;48.810;9.282;2022-09-30T07:06:35;3.43;;;3.13;;
1366;SDS011;16877;48.810;9.282;2022-09-30T07:09:03;3.50;;;3.20;;
1366;SDS011;16877;48.810;9.282;2022-09-30T07:11:30;3.83;;;3.37;;
1366;SDS011;16877;48.810;9.282;2022-09-30T07:13:57;5.40;;;4.33;;
1366;SDS011;16877;48.810;9.282;2022-09-30T07:16:25;4.23;;;3.53;;
1366;SDS011;16877;48.810;9.282;2022-09-30T07:18:51;3.60;;;3.00;;
1366;SDS011;16877;48.810;9.282;2022-09-30T07:21:18;3.17;;;2.87;;
1366;SDS011;16877;48.810;9.282;2022-09-30T07:23:45;3.77;;;3.30;;
1366;SDS011;16877;48.810;9.282;2022-09-30T07:26:12;3.30;;;3.00;;
1366;SDS011;16877;48.810;9.282;2022-09-30T07:28:40;4.17;;;3.57;;
1366;SDS011;16877;48.810;9.282;2022-09-30T07:31:08;3.50;;;2.90;;
1366;SDS011;16877;48.810;9.282;2022-09-30T07:33:38;3.87;;;3.23;;
1366;SDS011;16877;48.810;9.282;2022-09-30T07:36:05;3.30;;;3.00;;
1366;SDS011;16877;48.810;9.282;2022-09-30T07:38:33;3.17;;;2.60;;
1366;SDS011;16877;48.810;9.282;2022-09-30T07:41:02;4.17;;;3.77;;
1366;SDS011;16877;48.810;9.282;2022-09-30T07:43:32;3.50;;;3.20;;
1366;SDS011;16877;48.810;9.282;2022-09-30T07:46:03;3.80;;;3.40;;
1366;SDS011;16877;48.810;9.282;2022-09-30T07:48:31;4.00;;;3.40;;
1366;SDS011;16877;48.810;9.282;2022-09-30T07:51:09;5.10;;;3.80;;
1366;SDS011;16877;48.810;9.282;2022-09-30T07:53:36;5.10;;;4.40;;
1366;SDS011;16877;48.810;9.282;2022-09-30T07:56:04;4.90;;;4.40;;
1366;SDS011;16877;48.810;9.282;2022-09-30T07:58:32;4.27;;;3.87;;
1366;SDS011;16877;48.810;9.282;2022-09-30T08:00:59;4.90;;;4.37;;
1366;SDS011;16877;48.810;9.282;2022-09-30T08:03:25;4.90;;;4.17;;
1366;SDS011;16877;48.810;9.282;2022-09-30T08:05:52;4.17;;;3.50;;
1366;SDS011;16877;48.810;9.282;2022-09-30T08:08:20;4.60;;;4.20;;
1366;SDS011;16877;48.810;9.282;2022-09-30T08:10:47;8.33;;;5.17;;
1366;SDS011;16877;48.810;9.282;2022-09-30T08:13:14;5.20;;;4.70;;
1366;SDS011;16877;48.810;9.282;2022-09-30T08:15:41;5.30;;;4.80;;
1366;SDS011;16877;48.810;9.282;2022-09-30T08:18:08;6.80;;;4.90;;
1366;SDS011;16877;48.810;9.282;2022-09-30T08:20:35;5.00;;;4.50;;
1366;SDS011;16877;48.810;9.282;2022-09-30T08:23:01;4.97;;;4.10;;
1366;SDS011;16877;48.810;9.282;2022-09-30T08:25:29;8.40;;;5.30;;
1366;SDS011;16877;48.810;9.282;2022-09-30T08:27:56;5.33;;;4.67;;
1366;SDS011;16877;48.810;9.282;2022-09-30T08:30:23;5.00;;;4.50;;
1366;SDS011;16877;48.810;9.282;2022-09-30T08:32:49;5.40;;;4.90;;
1366;SDS011;16877;48.810;9.282;2022-09-30T08:35:16;4.33;;;3.93;;
1366;SDS011;16877;48.810;9.282;2022-09-30T08:37:43;5.03;;;4.53;;
1366;SDS011;16877;48.810;9.282;2022-09-30T08:40:14;5.27;;;4.77;;
1366;SDS011;16877;48.810;9.282;2022-09-30T08:42:58;4.93;;;4.30;;
1366;SDS011;16877;48.810;9.282;2022-09-30T08:45:48;4.53;;;4.13;;
1366;SDS011;16877;48.810;9.282;2022-09-30T08:48:30;6.13;;;4.80;;
1366;SDS011;16877;48.810;9.282;2022-09-30T08:51:16;6.00;;;4.83;;
1366;SDS011;16877;48.810;9.282;2022-09-30T08:53:54;5.10;;;4.60;;
1366;SDS011;16877;48.810;9.282;2022-09-30T08:56:24;6.57;;;5.47;;
1366;SDS011;16877;48.810;9.282;2022-09-30T08:58:54;6.60;;;6.00;;
1366;SDS011;16877;48.810;9.282;2022-09-30T09:01:26;5.57;;;5.03;;
1366;SDS011;16877;48.810;9.282;2022-09-30T09:03:57;7.23;;;5.57;;
1366;SDS011;16877;48.810;9.282;2022-09-30T09:06:25;6.77;;;5.60;;
1366;SDS011;16877;48.810;9.282;2022-09-30T09:09:08;4.97;;;4.47;;
1366;SDS011;16877;48.810;9.282;2022-09-30T09:14:49;5.93;;;5.43;;
1366;SDS011;16877;48.810;9.282;2022-09-30T09:17:31;6.60;;;5.90;;
1366;SDS011;16877;48.810;9.282;2022-09-30T09:20:11;5.60;;;5.00;;
1366;SDS011;16877;48.810;9.282;2022-09-30T09:22:40;4.90;;;4.23;;
1366;SDS011;16877;48.810;9.282;2022-09-30T09:25:10;5.13;;;4.63;;
1366;SDS011;16877;48.810;9.282;2022-09-30T09:27:42;6.10;;;5.33;;
1366;SDS011;16877;48.810;9.282;2022-09-30T09:30:16;6.80;;;4.83;;
1366;SDS011;16877;48.810;9.282;2022-09-30T09:32:47;6.07;;;5.27;;
1366;SDS011;16877;48.810;9.282;2022-09-30T09:35:21;5.20;;;4.40;;
1366;SDS011;16877;48.810;9.282;2022-09-30T09:37:59;4.47;;;3.83;;
1366;SDS011;16877;48.810;9.282;2022-09-30T09:40:51;5.10;;;3.83;;
1366;SDS011;16877;48.810;9.282;2022-09-30T09:43:32;4.97;;;3.60;;
1366;SDS011;16877;48.810;9.282;2022-09-30T09:46:10;3.60;;;3.23;;
1366;SDS011;16877;48.810;9.282;2022-09-30T09:48:46;4.47;;;3.80;;
1366;SDS011;16877;48.810;9.282;2022-09-30T09:51:14;4.80;;;3.70;;
1366;SDS011;16877;48.810;9.282;2022-09-30T09:53:48;3.60;;;2.90;;
1366;SDS011;16877;48.810;9.282;2022-09-30T09:56:17;3.83;;;3.17;;
1366;SDS011;16877;48.810;9.282;2022-09-30T10:01:39;3.00;;;2.60;;
1366;SDS011;16877;48.810;9.282;2022-09-30T10:04:08;3.60;;;2.60;;
1366;SDS011;16877;48.810;9.282;2022-09-30T10:06:47;4.00;;;3.23;;
1366;SDS011;16877;48.810;9.282;2022-09-30T10:12:18;2.60;;;1.90;;
1366;SDS011;16877;48.810;9.282;2022-09-30T10:14:54;3.30;;;2.40;;
1366;SDS011;16877;48.810;9.282;2022-09-30T10:17:26;3.43;;;2.60;;
1366;SDS011;16877;48.810;9.282;2022-09-30T10:19:56;3.43;;;2.40;;
1366;SDS011;16877;48.810;9.282;2022-09-30T10:22:26;4.70;;;2.83;;
1366;SDS011;16877;48.810;9.282;2022-09-30T10:25:07;3.30;;;2.53;;
1366;SDS011;16877;48.810;9.282;2022-09-30T10:27:45;3.67;;;2.20;;
1366;SDS011;16877;48.810;9.282;2022-09-30T10:30:26;3.00;;;2.27;;
1366;SDS011;16877;48.810;9.282;2022-09-30T10:33:01;3.03;;;1.77;;
1366;SDS011;16877;48.810;9.282;2022-09-30T10:35:29;2.93;;;1.57;;
1366;SDS011;16877;48.810;9.282;2022-09-30T10:37:57;2.80;;;2.00;;
1366;SDS011;16877;48.810;9.282;2022-09-30T10:40:25;2.30;;;1.43;;
1366;SDS011;16877;48.810;9.282;2022-09-30T10:42:54;2.83;;;1.87;;
1366;SDS011;16877;48.810;9.282;2022-09-30T10:45:21;2.60;;;1.73;;
1366;SDS011;16877;48.810;9.282;2022-09-30T10:47:50;2.80;;;1.70;;
1366;SDS011;16877;48.810;9.282;2022-09-30T10:50:20;3.00;;;1.90;;
1366;SDS011;16877;48.810;9.282;2022-09-30T10:52:52;3.63;;;2.10;;
1366;SDS011;16877;48.810;9.282;2022-09-30T10:55:30;3.07;;;2.10;;
1366;SDS011;16877;48.810;9.282;2022-09-30T10:58:00;2.60;;;1.70;;
1366;SDS011;16877;48.810;9.282;2022-09-30T11:00:48;5.33;;;1.97;;
1366;SDS011;16877;48.810;9.282;2022-09-30T11:03:19;2.30;;;1.37;;
1366;SDS011;16877;48.810;9.282;2022-09-30T11:05:51;3.07;;;2.00;;
1366;SDS011;16877;48.810;9.282;2022-09-30T11:08:19;2.20;;;1.40;;
1366;SDS011;16877;48.810;9.282;2022-09-30T11:10:50;2.93;;;1.20;;
1366;SDS011;16877;48.810;9.282;2022-09-30T11:13:25;2.60;;;1.60;;
1366;SDS011;16877;48.810;9.282;2022-09-30T11:16:00;3.10;;;1.73;;
1366;SDS011;16877;48.810;9.282;2022-09-30T11:18:36;3.40;;;1.30;;
1366;SDS011;16877;48.810;9.282;2022-09-30T11:21:09;3.10;;;1.60;;
1366;SDS011;16877;48.810;9.282;2022-09-30T11:23:42;4.07;;;1.63;;
1366;SDS011;16877;48.810;9.282;2022-09-30T11:26:15;3.93;;;1.43;;
1366;SDS011;16877;48.810;9.282;2022-09-30T11:28:55;2.80;;;1.70;;
1366;SDS011;16877;48.810;9.282;2022-09-30T11:31:39;2.63;;;1.27;;
1366;SDS011;16877;48.810;9.282;2022-09-30T11:34:18;2.50;;;1.47;;
1366;SDS011;16877;48.810;9.282;2022-09-30T11:36:59;3.30;;;1.90;;
1366;SDS011;16877;48.810;9.282;2022-09-30T11:39:36;3.57;;;1.60;;
1366;SDS011;16877;48.810;9.282;2022-09-30T11:42:17;3.13;;;1.50;;
1366;SDS011;16877;48.810;9.282;2022-09-30T11:44:50;2.90;;;1.67;;
1366;SDS011;16877;48.810;9.282;2022-09-30T11:47:28;3.40;;;1.70;;
1366;SDS011;16877;48.810;9.282;2022-09-30T11:50:16;2.87;;;1.30;;
1366;SDS011;16877;48.810;9.282;2022-09-30T11:53:01;2.73;;;1.77;;
1366;SDS011;16877;48.810;9.282;2022-09-30T11:55:42;3.43;;;1.87;;
1366;SDS011;16877;48.810;9.282;2022-09-30T11:58:18;2.57;;;1.43;;
1366;SDS011;16877;48.810;9.282;2022-09-30T12:00:48;2.57;;;1.50;;
1366;SDS011;16877;48.810;9.282;2022-09-30T12:03:21;3.50;;;1.63;;
1366;SDS011;16877;48.810;9.282;2022-09-30T12:05:53;3.33;;;1.60;;
1366;SDS011;16877;48.810;9.282;2022-09-30T12:08:26;7.70;;;1.60;;
1366;SDS011;16877;48.810;9.282;2022-09-30T12:10:56;2.30;;;1.33;;
1366;SDS011;16877;48.810;9.282;2022-09-30T12:13:28;3.20;;;1.30;;
1366;SDS011;16877;48.810;9.282;2022-09-30T12:15:58;2.80;;;1.40;;
1366;SDS011;16877;48.810;9.282;2022-09-30T12:18:29;2.73;;;1.20;;
1366;SDS011;16877;48.810;9.282;2022-09-30T12:20:59;4.70;;;1.50;;
1366;SDS011;16877;48.810;9.282;2022-09-30T12:23:30;2.57;;;1.60;;
1366;SDS011;16877;48.810;9.282;2022-09-30T12:26:02;2.40;;;1.50;;
1366;SDS011;16877;48.810;9.282;2022-09-30T12:28:30;3.03;;;1.20;;
1366;SDS011;16877;48.810;9.282;2022-09-30T12:31:25;3.20;;;1.73;;
1366;SDS011;16877;48.810;9.282;2022-09-30T12:34:14;3.23;;;1.70;;
1366;SDS011;16877;48.810;9.282;2022-09-30T12:36:54;2.70;;;1.43;;
1366;SDS011;16877;48.810;9.282;2022-09-30T12:39:49;3.47;;;1.67;;
1366;SDS011;16877;48.810;9.282;2022-09-30T12:42:45;2.83;;;1.60;;
1366;SDS011;16877;48.810;9.282;2022-09-30T12:45:31;2.80;;;1.53;;
1366;SDS011;16877;48.810;9.282;2022-09-30T12:48:10;2.10;;;1.20;;
1366;SDS011;16877;48.810;9.282;2022-09-30T12:50:41;3.47;;;1.90;;
1366;SDS011;16877;48.810;9.282;2022-09-30T12:53:11;3.60;;;1.43;;
1366;SDS011;16877;48.810;9.282;2022-09-30T12:55:44;3.33;;;1.50;;
1366;SDS011;16877;48.810;9.282;2022-09-30T12:58:17;2.27;;;1.40;;
1366;SDS011;16877;48.810;9.282;2022-09-30T13:01:03;2.50;;;1.50;;
1366;SDS011;16877;48.810;9.282;2022-09-30T13:03:45;2.20;;;1.20;;
1366;SDS011;16877;48.810;9.282;2022-09-30T13:06:15;3.10;;;1.60;;
1366;SDS011;16877;48.810;9.282;2022-09-30T13:08:43;2.60;;;1.33;;
1366;SDS011;16877;48.810;9.282;2022-09-30T13:11:33;2.70;;;1.43;;
1366;SDS011;16877;48.810;9.282;2022-09-30T13:14:10;2.40;;;1.30;;
1366;SDS011;16877;48.810;9.282;2022-09-30T13:16:57;2.73;;;1.27;;
1366;SDS011;16877;48.810;9.282;2022-09-30T13:19:43;3.10;;;1.17;;
1366;SDS011;16877;48.810;9.282;2022-09-30T13:25:17;2.87;;;1.30;;
1366;SDS011;16877;48.810;9.282;2022-09-30T13:27:46;2.60;;;1.30;;
1366;SDS011;16877;48.810;9.282;2022-09-30T13:30:32;2.83;;;1.50;;
1366;SDS011;16877;48.810;9.282;2022-09-30T13:33:04;2.50;;;1.20;;
1366;SDS011;16877;48.810;9.282;2022-09-30T13:35:50;3.30;;;1.70;;
1366;SDS011;16877;48.810;9.282;2022-09-30T13:38:18;2.60;;;1.23;;
1366;SDS011;16877;48.810;9.282;2022-09-30T13:40:50;2.97;;;1.47;;
1366;SDS011;16877;48.810;9.282;2022-09-30T13:43:27;3.80;;;1.43;;
1366;SDS011;16877;48.810;9.282;2022-09-30T13:46:03;2.63;;;1.17;;
1366;SDS011;16877;48.810;9.282;2022-09-30T13:48:33;2.70;;;1.30;;
1366;SDS011;16877;48.810;9.282;2022-09-30T13:51:04;3.57;;;1.57;;
1366;SDS011;16877;48.810;9.282;2022-09-30T13:53:36;2.77;;;1.53;;
1366;SDS011;16877;48.810;9.282;2022-09-30T13:56:06;4.97;;;2.13;;
1366;SDS011;16877;48.810;9.282;2022-09-30T13:58:51;2.57;;;1.73;;
1366;SDS011;16877;48.810;9.282;2022-09-30T14:01:39;3.03;;;1.50;;
1366;SDS011;16877;48.810;9.282;2022-09-30T14:04:22;2.93;;;1.40;;
1366;SDS011;16877;48.810;9.282;2022-09-30T14:07:12;2.87;;;1.27;;
1366;SDS011;16877;48.810;9.282;2022-09-30T14:09:51;2.30;;;1.50;;
1366;SDS011;16877;48.810;9.282;2022-09-30T14:12:33;2.93;;;1.40;;
1366;SDS011;16877;48.810;9.282;2022-09-30T14:15:19;2.67;;;1.03;;
1366;SDS011;16877;48.810;9.282;2022-09-30T14:18:14;3.07;;;1.40;;
1366;SDS011;16877;48.810;9.282;2022-09-30T14:21:04;2.47;;;1.40;;
1366;SDS011;16877;48.810;9.282;2022-09-30T14:23:45;2.43;;;1.10;;
1366;SDS011;16877;48.810;9.282;2022-09-30T14:26:25;2.53;;;1.43;;
1366;SDS011;16877;48.810;9.282;2022-09-30T14:29:05;3.00;;;1.43;;
1366;SDS011;16877;48.810;9.282;2022-09-30T14:31:43;3.70;;;1.20;;
1366;SDS011;16877;48.810;9.282;2022-09-30T14:34:10;2.50;;;0.83;;
1366;SDS011;16877;48.810;9.282;2022-09-30T14:36:38;2.60;;;1.30;;
1366;SDS011;16877;48.810;9.282;2022-09-30T14:39:09;4.87;;;1.73;;
1366;SDS011;16877;48.810;9.282;2022-09-30T14:41:44;2.40;;;1.30;;
1366;SDS011;16877;48.810;9.282;2022-09-30T14:44:15;2.70;;;1.40;;
1366;SDS011;16877;48.810;9.282;2022-09-30T14:46:45;2.13;;;1.20;;
1366;SDS011;16877;48.810;9.282;2022-09-30T14:49:15;2.50;;;1.30;;
1366;SDS011;16877;48.810;9.282;2022-09-30T14:51:46;2.77;;;1.40;;
1366;SDS011;16877;48.810;9.282;2022-09-30T14:54:15;2.23;;;1.10;;
1366;SDS011;16877;48.810;9.282;2022-09-30T14:56:44;2.20;;;1.13;;
1366;SDS011;16877;48.810;9.282;2022-09-30T14:59:14;2.90;;;1.57;;
1366;SDS011;16877;48.810;9.282;2022-09-30T15:01:42;2.53;;;1.20;;
1366;SDS011;16877;48.810;9.282;2022-09-30T15:04:13;3.10;;;1.00;;
1366;SDS011;16877;48.810;9.282;2022-09-30T15:06:42;2.50;;;1.30;;
1366;SDS011;16877;48.810;9.282;2022-09-30T15:09:14;2.60;;;1.40;;
1366;SDS011;16877;48.810;9.282;2022-09-30T15:11:42;2.40;;;1.33;;
1366;SDS011;16877;48.810;9.282;2022-09-30T15:14:12;3.13;;;1.33;;
1366;SDS011;16877;48.810;9.282;2022-09-30T15:16:44;2.40;;;1.40;;
1366;SDS011;16877;48.810;9.282;2022-09-30T15:19:16;2.60;;;1.30;;
1366;SDS011;16877;48.810;9.282;2022-09-30T15:21:45;2.60;;;1.20;;
1366;SDS011;16877;48.810;9.282;2022-09-30T15:24:13;2.90;;;1.60;;
1366;SDS011;16877;48.810;9.282;2022-09-30T15:26:42;3.33;;;1.53;;
1366;SDS011;16877;48.810;9.282;2022-09-30T15:29:11;2.80;;;1.40;;
1366;SDS011;16877;48.810;9.282;2022-09-30T15:31:40;3.50;;;1.57;;
1366;SDS011;16877;48.810;9.282;2022-09-30T15:34:13;2.30;;;1.40;;
1366;SDS011;16877;48.810;9.282;2022-09-30T15:36:42;2.60;;;1.27;;
1366;SDS011;16877;48.810;9.282;2022-09-30T15:39:16;2.40;;;1.30;;
1366;SDS011;16877;48.810;9.282;2022-09-30T15:41:46;3.10;;;1.43;;
1366;SDS011;16877;48.810;9.282;2022-09-30T15:44:14;2.30;;;1.10;;
1366;SDS011;16877;48.810;9.282;2022-09-30T15:46:58;2.50;;;1.33;;